Time;durP1;ratioP1;P1;durP2;ratioP2;P2;SDS_P1;SDS_P2;PMS_P1;PMS_P2;Temp;Humidity;BMP_temperature;BMP_pressure;BME280_temperature;BME280_humidity;BME280_pressure;Samples;Min_cycle;Max_cycle;Signal;HPM_P1;HPM_P2
2022/01/05 00:00:35;;;;;;;1.73;0.60;;;6.90;99.90;;;;;;4992882;28;20049;-93
2022/01/05 00:03:29;;;;;;;2.50;0.80;;;6.90;99.90;;;;;;4994691;28;20042;-93
2022/01/05 00:05:58;;;;;;;3.15;0.80;;;6.90;99.90;;;;;;4977193;28;20053;-91
2022/01/05 00:08:27;;;;;;;1.95;0.60;;;6.90;99.90;;;;;;4976491;28;20126;-96
2022/01/05 00:10:57;;;;;;;3.53;1.10;;;6.90;99.90;;;;;;5006875;28;20042;-92
2022/01/05 00:13:26;;;;;;;2.33;0.82;;;6.90;99.90;;;;;;4985954;28;20086;-91
2022/01/05 00:16:03;;;;;;;2.50;0.97;;;6.80;99.90;;;;;;4981669;28;20713;-94
2022/01/05 00:18:41;;;;;;;3.13;1.25;;;6.70;99.90;;;;;;4974906;28;20042;-93
2022/01/05 00:21:10;;;;;;;3.08;1.08;;;6.70;99.90;;;;;;4990857;28;20050;-93
2022/01/05 00:23:39;;;;;;;2.65;0.98;;;6.60;99.90;;;;;;5013207;28;20050;-93
2022/01/05 00:26:08;;;;;;;2.70;1.10;;;6.70;99.90;;;;;;4978126;28;20051;-94
2022/01/05 00:28:37;;;;;;;4.13;1.33;;;6.80;99.90;;;;;;4995422;28;20046;-93
2022/01/05 00:31:11;;;;;;;2.63;1.02;;;6.80;99.90;;;;;;4978194;28;20066;-93
2022/01/05 00:33:39;;;;;;;2.03;0.85;;;6.80;99.90;;;;;;4991810;28;20054;-92
2022/01/05 00:36:09;;;;;;;3.45;1.20;;;6.70;99.90;;;;;;4994153;28;20042;-92
2022/01/05 00:38:37;;;;;;;2.83;1.13;;;6.80;99.90;;;;;;4996236;28;20066;-92
2022/01/05 00:41:31;;;;;;;2.30;0.83;;;6.80;99.90;;;;;;4986238;28;20074;-92
2022/01/05 00:44:01;;;;;;;1.83;0.88;;;6.80;99.90;;;;;;5015550;28;20085;-93
2022/01/05 00:46:32;;;;;;;4.18;1.30;;;6.60;99.90;;;;;;5004807;28;20042;-92
2022/01/05 00:49:02;;;;;;;2.67;0.77;;;6.70;99.90;;;;;;4996104;28;20046;-92
2022/01/05 00:51:32;;;;;;;2.45;1.10;;;6.70;99.90;;;;;;4996298;28;20046;-92
2022/01/05 00:54:01;;;;;;;2.33;1.07;;;6.80;99.90;;;;;;4991311;28;20109;-92
2022/01/05 00:56:29;;;;;;;2.67;0.95;;;6.80;99.90;;;;;;4992800;28;20061;-92
2022/01/05 00:58:58;;;;;;;3.65;0.88;;;6.80;99.90;;;;;;4982230;28;20046;-93
2022/01/05 01:01:27;;;;;;;3.10;1.00;;;6.80;99.90;;;;;;4995505;28;20068;-91
2022/01/05 01:03:57;;;;;;;3.63;1.10;;;6.80;99.90;;;;;;4992113;28;20126;-94
2022/01/05 01:06:26;;;;;;;2.03;0.60;;;6.80;99.90;;;;;;4999569;28;20497;-93
2022/01/05 01:08:58;;;;;;;2.35;1.02;;;6.80;99.90;;;;;;4996979;28;20057;-94
2022/01/05 01:11:26;;;;;;;3.15;0.75;;;6.80;99.90;;;;;;4979186;28;20142;-91
2022/01/05 01:13:55;;;;;;;2.80;0.90;;;6.80;99.90;;;;;;4976155;28;20366;-93
2022/01/05 01:16:25;;;;;;;2.30;0.93;;;6.80;99.90;;;;;;4997065;28;20038;-93
2022/01/05 01:19:20;;;;;;;1.83;0.77;;;6.80;99.90;;;;;;5014115;28;20054;-93
2022/01/05 01:21:49;;;;;;;1.98;0.80;;;6.90;99.90;;;;;;5001660;28;20050;-92
2022/01/05 01:24:18;;;;;;;2.03;0.82;;;6.90;99.90;;;;;;4982675;28;20109;-93
2022/01/05 01:26:47;;;;;;;2.65;0.82;;;7.00;99.90;;;;;;4993115;28;20042;-93
2022/01/05 01:29:16;;;;;;;2.10;0.80;;;7.00;99.90;;;;;;4995962;28;20476;-93
2022/01/05 01:31:45;;;;;;;2.37;0.87;;;7.00;99.90;;;;;;4991373;28;20434;-92
2022/01/05 01:34:13;;;;;;;3.50;0.90;;;7.00;99.90;;;;;;4979137;28;20046;-94
2022/01/05 01:36:44;;;;;;;3.90;0.98;;;6.90;99.90;;;;;;5008980;28;20050;-92
2022/01/05 01:39:12;;;;;;;2.35;0.77;;;6.90;99.90;;;;;;4976828;28;20038;-92
2022/01/05 01:41:41;;;;;;;2.00;1.00;;;6.90;99.90;;;;;;4989322;28;20046;-91
2022/01/05 01:44:11;;;;;;;2.27;0.83;;;7.00;99.90;;;;;;4991714;28;20050;-93
2022/01/05 01:46:43;;;;;;;1.95;0.73;;;7.00;99.90;;;;;;4993038;28;20060;-94
2022/01/05 01:49:12;;;;;;;2.88;0.80;;;7.10;99.90;;;;;;4977482;28;20046;-93
2022/01/05 01:51:43;;;;;;;2.55;0.93;;;7.10;99.90;;;;;;4983589;28;20166;-93
2022/01/05 01:54:13;;;;;;;3.33;1.30;;;7.10;99.90;;;;;;4965222;28;20043;-93
2022/01/05 01:56:45;;;;;;;2.50;0.87;;;7.10;99.90;;;;;;4964359;28;20053;-92
2022/01/05 01:59:14;;;;;;;2.13;1.05;;;7.10;99.90;;;;;;4992507;28;20074;-93
2022/01/05 02:01:45;;;;;;;1.58;0.50;;;7.10;99.90;;;;;;4989389;28;20086;-93
2022/01/05 02:04:21;;;;;;;2.08;0.77;;;7.00;99.90;;;;;;4976037;28;20172;-93
2022/01/05 02:06:57;;;;;;;2.47;0.73;;;6.90;99.90;;;;;;4958947;28;20061;-93
2022/01/05 02:09:29;;;;;;;2.10;0.57;;;7.00;99.90;;;;;;4993437;28;20046;-93
2022/01/05 02:11:58;;;;;;;1.98;0.50;;;6.90;99.90;;;;;;4988653;28;20137;-93
2022/01/05 02:14:28;;;;;;;2.75;1.05;;;7.00;99.90;;;;;;4977664;28;20159;-93
2022/01/05 02:16:58;;;;;;;2.22;0.60;;;6.90;99.90;;;;;;4975037;28;20419;-92
2022/01/05 02:19:27;;;;;;;2.40;0.90;;;6.80;99.90;;;;;;4962828;28;20072;-93
2022/01/05 02:21:58;;;;;;;2.33;0.73;;;6.80;99.90;;;;;;4991131;28;20105;-94
2022/01/05 02:24:27;;;;;;;2.65;0.80;;;6.90;99.90;;;;;;4975510;28;20051;-93
2022/01/05 02:26:56;;;;;;;1.98;0.55;;;6.90;99.90;;;;;;4973374;28;20088;-93
2022/01/05 02:29:25;;;;;;;2.30;0.80;;;6.90;99.90;;;;;;4987588;28;20066;-94
2022/01/05 02:31:57;;;;;;;2.28;0.68;;;7.00;99.90;;;;;;4961374;28;20046;-92
2022/01/05 02:34:25;;;;;;;2.47;0.80;;;7.00;99.90;;;;;;4977112;28;20577;-93
2022/01/05 02:36:54;;;;;;;3.67;0.70;;;6.90;99.90;;;;;;4991965;28;20043;-92
2022/01/05 02:39:24;;;;;;;2.05;0.88;;;6.90;99.90;;;;;;4976699;28;20628;-91
2022/01/05 02:41:53;;;;;;;2.13;0.88;;;6.90;99.90;;;;;;4990218;28;20026;-93
2022/01/05 02:44:22;;;;;;;2.13;0.90;;;6.80;99.90;;;;;;4993858;28;20046;-93
2022/01/05 02:46:51;;;;;;;3.23;1.37;;;6.80;99.90;;;;;;4992245;28;20100;-93
2022/01/05 02:49:20;;;;;;;2.45;0.90;;;6.90;99.90;;;;;;4992246;28;20022;-93
2022/01/05 02:51:49;;;;;;;2.38;0.77;;;6.90;99.90;;;;;;4973943;28;20054;-93
2022/01/05 02:54:19;;;;;;;4.03;1.10;;;6.90;99.90;;;;;;4971538;28;20090;-93
2022/01/05 02:56:54;;;;;;;2.55;0.70;;;7.00;99.90;;;;;;4961166;28;20067;-93
2022/01/05 02:59:23;;;;;;;2.70;1.00;;;7.00;99.90;;;;;;4956587;28;20054;-92
2022/01/05 03:01:53;;;;;;;2.97;1.13;;;7.00;99.90;;;;;;4963060;28;20070;-94
2022/01/05 03:04:23;;;;;;;2.63;1.17;;;7.00;99.90;;;;;;4942831;28;20110;-93
2022/01/05 03:06:52;;;;;;;2.05;0.68;;;7.10;99.90;;;;;;4949542;28;20561;-94
2022/01/05 03:09:21;;;;;;;2.95;1.20;;;7.10;99.90;;;;;;4962726;28;20035;-94
2022/01/05 03:11:53;;;;;;;3.10;0.83;;;7.20;99.90;;;;;;4959258;28;20113;-94
2022/01/05 03:14:22;;;;;;;2.22;0.85;;;7.20;99.90;;;;;;4946095;28;20458;-93
2022/01/05 03:16:51;;;;;;;2.08;0.68;;;7.20;99.90;;;;;;4959823;28;20054;-94
2022/01/05 03:19:21;;;;;;;2.42;0.65;;;7.20;99.90;;;;;;4962916;28;20081;-93
2022/01/05 03:21:50;;;;;;;2.47;1.00;;;7.20;99.90;;;;;;4945840;28;20094;-93
2022/01/05 03:24:19;;;;;;;3.67;0.97;;;7.20;99.90;;;;;;4961761;28;20043;-91
2022/01/05 03:26:49;;;;;;;1.90;0.82;;;7.20;99.90;;;;;;4951890;28;20058;-91
2022/01/05 03:29:19;;;;;;;2.20;0.82;;;7.20;99.90;;;;;;4947917;28;20066;-92
2022/01/05 03:31:49;;;;;;;2.58;0.80;;;7.20;99.90;;;;;;4953191;28;20058;-92
2022/01/05 03:34:19;;;;;;;2.33;0.80;;;7.10;99.90;;;;;;4959719;28;20449;-92
2022/01/05 03:36:48;;;;;;;2.87;0.80;;;7.10;99.90;;;;;;4957574;28;20062;-92
2022/01/05 03:39:17;;;;;;;1.33;0.52;;;7.10;99.90;;;;;;4949747;28;20043;-93
2022/01/05 03:41:46;;;;;;;1.65;0.45;;;7.10;99.90;;;;;;4975745;28;20074;-91
2022/01/05 03:44:15;;;;;;;1.85;0.50;;;7.10;99.90;;;;;;4958218;28;20059;-92
2022/01/05 03:46:46;;;;;;;1.85;0.68;;;7.10;99.90;;;;;;4963206;28;20108;-94
2022/01/05 03:49:15;;;;;;;2.00;0.50;;;7.10;99.90;;;;;;4951166;28;20043;-93
2022/01/05 03:51:46;;;;;;;1.55;0.47;;;7.20;99.90;;;;;;4992187;28;20440;-92
2022/01/05 03:54:16;;;;;;;1.42;0.40;;;7.10;99.90;;;;;;4989450;28;20078;-92
2022/01/05 03:56:45;;;;;;;2.53;0.65;;;7.10;99.90;;;;;;4995411;28;20113;-91
2022/01/05 03:59:13;;;;;;;2.67;0.60;;;7.10;99.90;;;;;;5007515;28;20054;-93
2022/01/05 04:01:43;;;;;;;1.70;0.43;;;7.10;99.90;;;;;;4981182;28;20046;-92
2022/01/05 04:04:14;;;;;;;1.98;0.40;;;7.10;99.90;;;;;;4992101;28;20053;-92
2022/01/05 04:06:43;;;;;;;2.00;0.40;;;7.10;99.90;;;;;;4999941;28;20038;-92
2022/01/05 04:09:12;;;;;;;1.83;0.40;;;7.10;99.90;;;;;;4992283;28;20050;-94
2022/01/05 04:11:41;;;;;;;1.83;0.30;;;7.10;99.90;;;;;;4995371;28;20046;-92
2022/01/05 04:14:12;;;;;;;1.90;0.70;;;7.10;99.90;;;;;;4986935;28;20043;-91
2022/01/05 04:16:41;;;;;;;1.58;0.60;;;7.10;99.90;;;;;;4990632;28;20073;-93
2022/01/05 04:19:11;;;;;;;1.63;0.30;;;7.10;99.90;;;;;;4981956;28;20034;-93
2022/01/05 04:21:42;;;;;;;1.48;0.55;;;7.10;99.90;;;;;;4994103;28;20114;-91
2022/01/05 04:24:10;;;;;;;1.75;0.50;;;7.20;99.90;;;;;;4992937;28;20501;-92
2022/01/05 04:26:40;;;;;;;1.57;0.50;;;7.30;99.90;;;;;;4996616;28;20065;-92
2022/01/05 04:29:10;;;;;;;3.30;0.30;;;7.40;99.90;;;;;;4987798;28;20054;-93
2022/01/05 04:31:39;;;;;;;1.58;0.50;;;7.40;99.90;;;;;;4979542;28;20038;-92
2022/01/05 04:34:08;;;;;;;1.55;0.40;;;7.40;99.90;;;;;;4980811;28;20046;-92
2022/01/05 04:36:58;;;;;;;2.03;0.50;;;7.40;99.90;;;;;;5002910;28;20126;-93
2022/01/05 04:39:27;;;;;;;1.10;0.47;;;7.40;99.90;;;;;;4993464;28;20131;-92
2022/01/05 04:41:56;;;;;;;1.90;0.47;;;7.50;99.90;;;;;;4988694;28;20126;-92
2022/01/05 04:44:25;;;;;;;1.20;0.35;;;7.40;99.90;;;;;;4980311;28;20049;-93
2022/01/05 04:46:54;;;;;;;1.30;0.40;;;7.40;99.90;;;;;;4995543;28;20070;-92
2022/01/05 04:49:24;;;;;;;1.60;0.60;;;7.50;99.90;;;;;;4979547;28;20074;-93
2022/01/05 04:51:54;;;;;;;3.33;0.50;;;7.50;99.90;;;;;;4957647;28;20047;-93
2022/01/05 04:54:24;;;;;;;1.00;0.28;;;7.50;99.90;;;;;;4958792;28;20054;-92
2022/01/05 04:56:53;;;;;;;0.98;0.28;;;7.50;99.90;;;;;;4966885;28;20191;-92
2022/01/05 04:59:23;;;;;;;0.60;0.13;;;7.40;99.90;;;;;;4946360;28;20093;-93
2022/01/05 05:01:52;;;;;;;0.80;0.15;;;7.40;99.90;;;;;;4962678;28;20055;-92
2022/01/05 05:04:21;;;;;;;1.10;0.20;;;7.50;99.90;;;;;;4965372;28;20042;-91
2022/01/05 05:06:51;;;;;;;0.93;0.30;;;7.50;99.90;;;;;;4966192;28;20035;-93
2022/01/05 05:09:20;;;;;;;1.08;0.20;;;7.50;99.90;;;;;;4966380;28;20047;-91
2022/01/05 05:11:51;;;;;;;1.25;0.45;;;7.50;99.90;;;;;;4958823;28;20493;-93
2022/01/05 05:14:21;;;;;;;1.10;0.30;;;7.40;99.90;;;;;;4942915;28;20092;-92
2022/01/05 05:16:50;;;;;;;0.90;0.20;;;7.40;99.90;;;;;;4941892;28;20121;-92
2022/01/05 05:19:20;;;;;;;2.10;0.30;;;7.40;99.90;;;;;;4960629;28;20047;-93
2022/01/05 05:21:49;;;;;;;1.10;0.20;;;7.40;99.90;;;;;;4958764;28;20499;-92
2022/01/05 05:24:19;;;;;;;1.20;0.30;;;7.40;99.90;;;;;;4944758;28;20055;-92
2022/01/05 05:26:48;;;;;;;1.00;0.28;;;7.40;99.90;;;;;;4958755;28;20054;-96
2022/01/05 05:29:18;;;;;;;1.30;0.30;;;7.40;99.90;;;;;;4976308;28;20047;-94
2022/01/05 05:31:48;;;;;;;1.63;0.55;;;7.40;99.90;;;;;;4946743;28;20057;-92
2022/01/05 05:34:19;;;;;;;1.15;0.35;;;7.40;99.90;;;;;;4965832;28;20121;-93
2022/01/05 05:36:48;;;;;;;1.05;0.30;;;7.40;99.90;;;;;;4941938;28;20097;-94
2022/01/05 05:39:17;;;;;;;1.15;0.30;;;7.40;99.90;;;;;;4978328;28;20047;-93
2022/01/05 05:41:46;;;;;;;1.00;0.30;;;7.40;99.90;;;;;;4957624;28;20401;-93
2022/01/05 05:44:15;;;;;;;1.25;0.40;;;7.40;99.90;;;;;;4975418;28;20129;-92
2022/01/05 05:46:46;;;;;;;2.22;0.35;;;7.40;99.90;;;;;;4948414;28;20070;-93
2022/01/05 05:49:15;;;;;;;1.75;0.45;;;7.40;99.90;;;;;;4962989;28;20047;-93
2022/01/05 05:51:45;;;;;;;1.85;0.50;;;7.40;99.90;;;;;;4997178;28;20050;-94
2022/01/05 05:54:14;;;;;;;2.83;0.60;;;7.30;99.90;;;;;;4995770;28;20058;-93
2022/01/05 05:56:43;;;;;;;1.80;0.57;;;7.40;99.90;;;;;;4980426;28;20046;-93
2022/01/05 05:59:13;;;;;;;1.95;0.50;;;7.40;99.90;;;;;;4984892;28;20137;-94
2022/01/05 06:01:42;;;;;;;1.30;0.30;;;7.40;99.90;;;;;;5010824;28;20101;-93
2022/01/05 06:04:13;;;;;;;1.20;0.40;;;7.40;99.90;;;;;;4992893;28;20054;-93
2022/01/05 06:06:42;;;;;;;0.80;0.20;;;7.30;99.90;;;;;;4996719;28;20062;-94
2022/01/05 06:09:11;;;;;;;1.08;0.40;;;7.30;99.90;;;;;;4987473;28;20531;-93
2022/01/05 06:11:41;;;;;;;1.85;0.35;;;7.30;99.90;;;;;;4990925;28;20050;-92
2022/01/05 06:14:10;;;;;;;1.30;0.30;;;7.40;99.90;;;;;;4975533;28;20461;-93
2022/01/05 06:16:39;;;;;;;1.38;0.35;;;7.30;99.90;;;;;;5006943;28;20042;-94
2022/01/05 06:19:08;;;;;;;1.00;0.20;;;7.40;99.90;;;;;;4992615;28;20046;-92
2022/01/05 06:21:39;;;;;;;0.90;0.28;;;7.40;99.90;;;;;;5007051;28;20046;-92
2022/01/05 06:24:08;;;;;;;1.65;0.30;;;7.30;99.90;;;;;;4994095;28;20046;-94
2022/01/05 06:26:38;;;;;;;0.73;0.20;;;7.40;99.90;;;;;;4992583;28;20431;-92
2022/01/05 06:29:08;;;;;;;0.60;0.10;;;7.40;99.90;;;;;;4979019;28;20038;-91
2022/01/05 06:31:38;;;;;;;1.07;0.20;;;7.40;99.90;;;;;;4993648;28;20051;-92
2022/01/05 06:34:07;;;;;;;0.45;0.10;;;7.30;99.90;;;;;;4993143;28;20050;-92
2022/01/05 06:36:36;;;;;;;1.40;0.32;;;7.30;99.90;;;;;;4992802;28;20046;-92
2022/01/05 06:39:06;;;;;;;1.40;0.35;;;7.10;99.90;;;;;;4994107;28;20538;-92
2022/01/05 06:41:35;;;;;;;0.40;0.10;;;7.10;99.90;;;;;;4978642;28;20137;-94
2022/01/05 06:47:20;;;;;;;0.63;0.10;;;6.20;99.90;;;;;;4993064;28;20043;-95
2022/01/05 06:49:50;;;;;;;0.32;0.10;;;6.00;99.90;;;;;;4977771;28;20093;-95
2022/01/05 06:52:20;;;;;;;0.55;0.13;;;5.60;99.90;;;;;;4980860;28;20531;-96
2022/01/05 06:54:56;;;;;;;0.50;0.15;;;5.50;99.90;;;;;;5001193;28;20050;-96
2022/01/05 06:57:26;;;;;;;1.20;0.20;;;5.40;99.90;;;;;;4999160;23;20456;-71
2022/01/05 06:59:54;;;;;;;;;;;5.50;99.90;;;;;;4962663;28;20065;-73
2022/01/05 07:02:23;;;;;;;;;;;5.80;99.90;;;;;;4963086;28;20458;-70
2022/01/05 07:04:52;;;;;;;0.80;0.20;;;6.00;99.90;;;;;;4967643;28;20034;-74
2022/01/05 07:07:21;;;;;;;0.33;0.10;;;6.10;99.90;;;;;;4964458;28;20053;-77
2022/01/05 07:09:51;;;;;;;1.25;0.20;;;6.10;99.90;;;;;;4962150;28;20054;-69
2022/01/05 07:12:20;;;;;;;0.32;0.10;;;6.00;99.90;;;;;;4958778;28;20499;-69
2022/01/05 07:14:48;;;;;;;0.50;0.10;;;5.90;99.90;;;;;;4961598;28;20062;-69
2022/01/05 07:17:18;;;;;;;0.50;0.13;;;5.80;99.90;;;;;;4960439;28;20039;-69
2022/01/05 07:19:48;;;;;;;0.30;0.10;;;5.80;99.90;;;;;;4964765;28;20489;-69
2022/01/05 07:22:17;;;;;;;1.52;0.32;;;5.70;99.90;;;;;;4963475;28;20046;-69
2022/01/05 07:24:46;;;;;;;2.35;0.20;;;5.70;99.90;;;;;;4956925;28;20047;-69
2022/01/05 07:27:16;;;;;;;2.75;0.30;;;5.60;99.90;;;;;;4950703;28;20063;-69
2022/01/05 07:29:45;;;;;;;2.53;0.20;;;5.60;99.90;;;;;;4952155;28;20055;-69
2022/01/05 07:32:13;;;;;;;0.60;0.10;;;5.60;99.90;;;;;;4949354;28;20055;-70
2022/01/05 07:34:42;;;;;;;0.40;0.10;;;5.50;99.90;;;;;;4956837;28;20043;-69
2022/01/05 07:37:10;;;;;;;0.82;0.20;;;5.50;99.90;;;;;;4963068;28;20053;-69
2022/01/05 07:39:40;;;;;;;0.60;0.10;;;5.50;99.90;;;;;;4965466;28;20051;-69
2022/01/05 07:42:10;;;;;;;0.50;0.10;;;5.50;99.90;;;;;;4959520;28;20466;-71
2022/01/05 07:44:42;;;;;;;1.10;0.27;;;5.40;99.90;;;;;;4963809;28;20069;-70
2022/01/05 07:47:12;;;;;;;0.50;0.20;;;5.40;99.90;;;;;;4963401;28;20043;-70
2022/01/05 07:50:06;;;;;;;1.13;0.20;;;5.40;99.90;;;;;;4963218;28;20057;-68
2022/01/05 07:55:30;;;;;;;2.30;0.35;;;5.30;99.90;;;;;;4966188;28;20043;-76
2022/01/05 07:57:59;;;;;;;0.83;0.13;;;5.30;99.90;;;;;;4979080;28;20097;-69
2022/01/05 08:00:46;;;;;;;1.08;0.28;;;5.30;99.90;;;;;;4962548;28;20049;-74
2022/01/05 08:03:33;;;;;;;0.70;0.20;;;5.30;99.90;;;;;;4965186;28;20062;-71
2022/01/05 08:09:14;;;;;;;0.82;0.17;;;5.40;99.90;;;;;;4965005;28;20043;-71
2022/01/05 08:11:42;;;;;;;1.00;0.20;;;5.30;99.90;;;;;;4965462;28;20046;-71
2022/01/05 08:14:11;;;;;;;1.45;0.38;;;5.40;99.90;;;;;;4965748;28;20405;-73
2022/01/05 08:16:42;;;;;;;1.50;0.38;;;5.50;99.90;;;;;;4967416;28;20071;-70
2022/01/05 08:19:11;;;;;;;1.38;0.32;;;5.60;99.90;;;;;;4967918;28;20051;-70
2022/01/05 08:21:41;;;;;;;1.88;0.43;;;5.70;99.90;;;;;;4968728;28;20067;-69
2022/01/05 08:24:09;;;;;;;2.10;0.53;;;5.70;99.90;;;;;;4964694;28;20047;-69
2022/01/05 08:26:38;;;;;;;1.73;0.35;;;5.70;99.90;;;;;;4969227;28;20034;-70
2022/01/05 08:29:07;;;;;;;2.00;0.50;;;5.60;99.90;;;;;;4966088;28;20094;-71
2022/01/05 08:31:36;;;;;;;3.13;0.40;;;5.50;99.90;;;;;;4965272;28;20050;-73
2022/01/05 08:34:06;;;;;;;3.03;0.77;;;5.50;99.90;;;;;;4967554;28;20138;-70
2022/01/05 08:36:34;;;;;;;0.97;0.30;;;5.50;99.90;;;;;;4965724;28;20072;-71
2022/01/05 08:39:02;;;;;;;0.85;0.20;;;5.60;99.90;;;;;;4964914;28;20043;-68
2022/01/05 08:41:31;;;;;;;0.95;0.20;;;5.60;99.90;;;;;;4962391;28;20137;-71
2022/01/05 08:44:00;;;;;;;4.03;0.60;;;5.50;99.90;;;;;;4963474;28;20047;-68
2022/01/05 08:46:29;;;;;;;1.23;0.40;;;5.50;99.90;;;;;;4968909;28;20136;-68
2022/01/05 08:48:59;;;;;;;2.07;0.40;;;5.40;99.90;;;;;;4969578;28;20134;-75
2022/01/05 08:51:29;;;;;;;3.97;0.50;;;5.40;99.90;;;;;;4965503;28;20068;-70
2022/01/05 08:53:58;;;;;;;5.05;0.52;;;5.60;99.90;;;;;;4965378;28;20042;-70
2022/01/05 08:56:28;;;;;;;2.10;0.40;;;5.60;99.90;;;;;;4972517;28;20105;-78
2022/01/05 08:58:57;;;;;;;2.30;0.80;;;5.60;99.90;;;;;;4981886;28;20082;-71
2022/01/05 09:01:26;;;;;;;1.80;0.60;;;5.50;99.90;;;;;;4983272;28;20532;-69
2022/01/05 09:04:30;;;;;;;2.28;0.50;;;5.50;99.90;;;;;;5079341;28;20474;-68
2022/01/05 09:07:00;;;;;;;2.00;0.77;;;5.50;99.90;;;;;;5063916;28;20072;-69
2022/01/05 09:09:29;;;;;;;4.18;0.82;;;5.40;99.90;;;;;;5061304;28;20049;-69
2022/01/05 09:11:58;;;;;;;3.38;1.00;;;5.40;99.90;;;;;;5060778;28;20048;-69
2022/01/05 09:14:27;;;;;;;2.53;0.93;;;5.50;99.90;;;;;;5061682;28;20033;-73
2022/01/05 09:16:56;;;;;;;2.20;0.65;;;5.50;99.90;;;;;;5060492;28;20072;-69
2022/01/05 09:19:25;;;;;;;3.05;1.00;;;5.50;99.90;;;;;;5059429;28;20083;-71
2022/01/05 09:21:55;;;;;;;6.05;1.00;;;5.50;99.90;;;;;;5062641;28;20132;-71
2022/01/05 09:24:44;;;;;;;2.67;1.10;;;5.40;99.90;;;;;;5062129;28;20048;-68
2022/01/05 09:27:13;;;;;;;4.83;0.80;;;5.40;99.90;;;;;;5062727;28;20906;-69
2022/01/05 09:29:42;;;;;;;2.63;0.77;;;5.30;99.90;;;;;;5063943;28;20513;-68
2022/01/05 09:32:11;;;;;;;4.28;0.95;;;5.30;99.90;;;;;;5063695;28;20080;-69
2022/01/05 09:34:41;;;;;;;5.50;1.70;;;5.20;99.90;;;;;;5059915;28;20174;-69
2022/01/05 09:37:19;;;;;;;3.83;1.25;;;5.10;99.90;;;;;;5064606;28;20151;-69
2022/01/05 09:42:33;;;;;;;3.78;1.17;;;5.00;99.90;;;;;;5063338;28;20491;-69
2022/01/05 09:45:17;;;;;;;3.15;0.95;;;4.90;99.90;;;;;;5059053;28;20049;-69
2022/01/05 09:48:05;;;;;;;1.95;0.93;;;4.80;99.90;;;;;;5061619;28;20491;-78
2022/01/05 09:50:34;;;;;;;4.63;0.75;;;4.70;99.90;;;;;;5059207;28;20055;-71
2022/01/05 09:53:06;;;;;;;4.43;0.77;;;4.70;99.90;;;;;;5063700;28;20403;-71
2022/01/05 09:55:34;;;;;;;4.15;1.08;;;4.80;99.90;;;;;;5055758;28;20040;-69
2022/01/05 09:58:03;;;;;;;1.92;0.55;;;4.90;99.90;;;;;;5064443;28;20041;-68
2022/01/05 10:00:32;;;;;;;2.17;1.00;;;4.80;99.90;;;;;;5060645;28;20102;-71
2022/01/05 10:03:02;;;;;;;2.72;1.00;;;5.00;99.90;;;;;;5063401;28;20525;-69
2022/01/05 10:05:31;;;;;;;4.30;0.80;;;5.00;99.90;;;;;;5061097;28;20560;-69
2022/01/05 10:08:00;;;;;;;3.60;1.02;;;5.10;99.90;;;;;;5061837;28;20064;-70
2022/01/05 10:10:30;;;;;;;3.20;0.68;;;5.10;99.90;;;;;;5060674;28;20483;-68
2022/01/05 10:13:00;;;;;;;1.73;0.40;;;5.20;99.90;;;;;;5060689;28;20041;-72
2022/01/05 10:15:29;;;;;;;2.08;0.55;;;5.10;99.90;;;;;;5057308;28;20120;-71
2022/01/05 10:18:10;;;;;;;3.67;0.40;;;5.10;99.90;;;;;;5048121;28;20053;-70
2022/01/05 10:20:41;;;;;;;1.40;0.40;;;5.00;99.90;;;;;;5044589;28;20064;-68
2022/01/05 10:23:10;;;;;;;3.00;0.55;;;4.60;99.90;;;;;;5049224;28;20380;-70
2022/01/05 10:25:40;;;;;;;2.00;0.70;;;4.30;99.90;;;;;;5053969;28;20113;-78
2022/01/05 10:28:09;;;;;;;3.30;0.82;;;4.30;99.90;;;;;;5054692;28;20112;-72
2022/01/05 10:31:01;;;;;;;3.37;0.67;;;4.10;99.90;;;;;;5048244;28;20045;-72
2022/01/05 10:33:33;;;;;;;1.95;0.30;;;4.20;99.90;;;;;;5044446;28;20041;-68
2022/01/05 10:36:02;;;;;;;1.05;0.20;;;4.30;99.90;;;;;;5045380;28;20064;-68
2022/01/05 10:39:27;;;;;;;0.90;0.30;;;4.30;99.90;;;;;;5042080;28;20045;-68
2022/01/05 10:42:05;;;;;;;1.23;0.47;;;4.50;99.90;;;;;;5045644;28;20049;-71
2022/01/05 10:44:44;;;;;;;1.13;0.40;;;4.60;99.90;;;;;;5045411;28;20056;-70
2022/01/05 10:47:16;;;;;;;9.82;1.30;;;4.60;99.90;;;;;;5046537;28;20122;-68
2022/01/05 10:49:46;;;;;;;1.85;0.47;;;4.40;99.90;;;;;;5046124;28;20132;-69
2022/01/05 10:52:23;;;;;;;1.73;0.40;;;4.20;99.90;;;;;;5047186;28;20049;-71
2022/01/05 10:57:58;;;;;;;2.90;0.70;;;4.50;99.90;;;;;;5047356;28;20045;-69
2022/01/05 11:00:33;;;;;;;5.32;0.50;;;4.80;99.90;;;;;;5046595;28;20557;-71
2022/01/05 11:03:02;;;;;;;1.30;0.43;;;4.80;99.90;;;;;;5048418;28;20049;-71
2022/01/05 11:05:31;;;;;;;1.88;0.60;;;4.90;99.90;;;;;;5045168;28;20159;-71
2022/01/05 11:08:09;;;;;;;1.50;0.30;;;5.10;99.90;;;;;;5049023;28;20037;-69
2022/01/05 11:10:39;;;;;;;4.87;0.53;;;5.20;99.90;;;;;;5043611;28;20055;-69
2022/01/05 11:13:09;;;;;;;1.35;0.40;;;5.20;99.90;;;;;;5047806;28;20457;-69
2022/01/05 11:15:38;;;;;;;2.47;0.45;;;5.10;99.90;;;;;;5039328;28;20396;-69
2022/01/05 11:18:12;;;;;;;2.75;0.80;;;5.00;99.90;;;;;;5041547;28;20033;-69
2022/01/05 11:20:44;;;;;;;3.45;0.50;;;4.90;99.90;;;;;;5040186;28;20044;-69
2022/01/05 11:23:15;;;;;;;3.50;0.40;;;4.80;99.90;;;;;;5044857;28;20040;-68
2022/01/05 11:25:45;;;;;;;4.25;0.75;;;4.70;99.90;;;;;;5042401;28;20048;-68
2022/01/05 11:28:39;;;;;;;1.83;0.43;;;4.70;99.90;;;;;;5046897;28;20044;-68
2022/01/05 11:31:08;;;;;;;1.60;0.30;;;4.70;99.90;;;;;;5068841;28;20495;-70
2022/01/05 11:33:37;;;;;;;3.35;0.68;;;4.50;99.90;;;;;;5066754;28;20037;-69
2022/01/05 11:36:09;;;;;;;2.53;0.70;;;4.40;99.90;;;;;;5062934;28;20053;-70
2022/01/05 11:38:58;;;;;;;1.88;0.73;;;4.50;99.90;;;;;;5066200;28;20512;-73
2022/01/05 11:41:27;;;;;;;2.63;0.30;;;4.50;99.90;;;;;;5065052;28;20064;-69
2022/01/05 11:44:00;;;;;;;1.75;0.28;;;4.70;99.90;;;;;;5063849;28;20049;-66
2022/01/05 11:49:29;;;;;;;2.30;0.50;;;4.90;99.90;;;;;;5063999;28;20080;-67
2022/01/05 11:51:59;;;;;;;1.63;0.35;;;4.90;99.90;;;;;;5066587;28;20044;-68
2022/01/05 11:54:32;;;;;;;2.25;0.35;;;4.80;99.90;;;;;;5061895;28;20075;-68
2022/01/05 11:57:27;;;;;;;4.20;0.40;;;4.70;99.90;;;;;;5065546;28;20047;-69
2022/01/05 12:00:17;;;;;;;2.55;0.77;;;4.70;99.90;;;;;;5065298;28;20037;-70
2022/01/05 12:02:46;;;;;;;4.10;0.50;;;4.80;99.90;;;;;;5044031;28;20069;-71
2022/01/05 12:05:15;;;;;;;1.33;0.40;;;4.70;99.90;;;;;;5066779;28;20062;-70
2022/01/05 12:07:46;;;;;;;1.65;0.75;;;4.80;99.90;;;;;;5046196;28;20040;-72
2022/01/05 12:10:21;;;;;;;1.17;0.68;;;4.80;99.90;;;;;;5046387;28;20102;-69
2022/01/05 12:12:58;;;;;;;1.05;0.35;;;4.90;99.90;;;;;;5057182;28;20516;-71
2022/01/05 12:15:52;;;;;;;1.37;0.50;;;4.80;99.90;;;;;;5062128;28;20048;-71
2022/01/05 12:18:23;;;;;;;5.20;0.85;;;5.10;99.90;;;;;;5042686;28;20045;-70
2022/01/05 12:20:57;;;;;;;1.30;0.38;;;5.00;99.90;;;;;;5048668;28;20056;-71
2022/01/05 12:23:28;;;;;;;0.95;0.22;;;5.00;99.80;;;;;;5060030;28;20037;-71
2022/01/05 12:26:23;;;;;;;1.08;0.28;;;4.80;99.70;;;;;;5061400;28;20067;-71
2022/01/05 12:28:58;;;;;;;3.13;0.50;;;4.70;99.60;;;;;;5057649;28;20068;-69
2022/01/05 12:31:58;;;;;;;1.30;0.55;;;4.60;99.50;;;;;;5060024;28;20136;-69
2022/01/05 12:34:54;;;;;;;1.85;0.55;;;4.60;99.60;;;;;;5058187;28;20060;-69
2022/01/05 12:37:48;;;;;;;3.35;0.47;;;4.60;99.90;;;;;;5065243;28;20497;-69
2022/01/05 12:40:32;;;;;;;1.38;0.45;;;4.70;99.90;;;;;;5067619;28;20139;-69
2022/01/05 12:43:35;;;;;;;1.73;0.30;;;4.60;99.90;;;;;;5066937;28;21203;-69
2022/01/05 12:46:11;;;;;;;2.78;0.60;;;4.70;99.90;;;;;;5064890;28;20049;-69
2022/01/05 12:48:58;;;;;;;2.42;0.20;;;4.80;99.70;;;;;;5048850;28;20123;-69
2022/01/05 12:51:46;;;;;;;1.40;0.47;;;4.70;99.60;;;;;;5048758;28;20056;-69
2022/01/05 12:54:19;;;;;;;1.60;0.43;;;4.60;99.40;;;;;;5064435;28;20052;-69
2022/01/05 12:56:52;;;;;;;0.80;0.20;;;4.50;99.50;;;;;;5048938;28;20535;-70
2022/01/05 12:59:23;;;;;;;4.57;0.25;;;4.50;99.80;;;;;;5050976;28;20517;-70
2022/01/05 13:01:57;;;;;;;1.50;0.55;;;4.60;99.60;;;;;;5059352;28;20491;-70
2022/01/05 13:04:27;;;;;;;2.83;1.58;;;4.50;99.20;;;;;;5058931;28;20720;-70
2022/01/05 13:06:59;;;;;;;1.70;0.77;;;4.40;99.80;;;;;;5063216;28;20033;-71
2022/01/05 13:09:31;;;;;;;1.30;0.43;;;4.40;99.90;;;;;;5064593;28;20341;-71
2022/01/05 13:12:03;;;;;;;1.77;0.50;;;4.50;99.90;;;;;;5072992;28;20414;-69
2022/01/05 13:14:34;;;;;;;3.30;0.75;;;4.60;99.90;;;;;;5046429;28;20048;-71
2022/01/05 13:17:06;;;;;;;2.08;0.68;;;4.70;99.90;;;;;;5059178;28;20069;-69
2022/01/05 13:19:46;;;;;;;3.92;1.13;;;4.70;99.90;;;;;;5066368;28;20055;-69
2022/01/05 13:22:20;;;;;;;0.90;0.27;;;4.50;99.80;;;;;;5065682;28;20057;-70
2022/01/05 13:24:59;;;;;;;0.73;0.20;;;4.50;99.90;;;;;;5066690;28;20487;-70
2022/01/05 13:30:28;;;;;;;2.22;0.50;;;4.60;99.90;;;;;;5063635;28;20052;-69
2022/01/05 13:32:59;;;;;;;3.45;0.32;;;4.60;99.90;;;;;;5058662;28;20036;-68
2022/01/05 13:35:37;;;;;;;0.93;0.23;;;4.60;99.90;;;;;;5051123;28;20040;-67
2022/01/05 13:38:09;;;;;;;0.80;0.22;;;4.50;99.90;;;;;;5059231;28;20064;-68
2022/01/05 13:40:39;;;;;;;1.95;0.38;;;4.60;99.90;;;;;;5061572;28;20108;-68
2022/01/05 13:43:10;;;;;;;7.93;0.50;;;4.70;99.90;;;;;;5047745;28;20407;-68